Mahomet, Texas
Current Conditions -  °F | °C
As of 5:53 PM on Wednesday 22 Oct 2014 (Local Time) from KBMQ Reporting Station
Few Clouds Few Clouds  
Wind Chill: 77°   Ceiling: Unl
Heat Index: 79°   Visibility: 10mi
Dew Point: 56°   Wind: 6mph
Humidity: 48%   Direction: 120°ESE
Pressure: 30.09"   Gusts: NA
Location:  30.7452°N, 98.043°W
Report Text: KBMQ 222253Z AUTO 12005KT 10SM FEW120 25/13 A3009 RMK AO2 SLP176 T02500133
Loading
Personal Weather Stations






























Interactive Weather Map
Tropical Storm Tracking
New forecast layout! Learn more

10-Day Weather Forecast

Advertisements
Track Severe Weather on mobile